Camilla, Georgia
Current Conditions -  °F | °C
As of 11:53 AM on Friday 19 Dec 2014 (Local Time) from KABY Reporting Station
Clear Clear  
Wind Chill: 56°   Ceiling: Unl
Heat Index: 56°   Visibility: 10mi
Dew Point: 39°   Wind: 5mph
Humidity: 53%   Direction: 60°ENE
Pressure: 30.18"   Gusts: NA
Location:  31.23°N, 84.2°W
Report Text: KABY 191653Z 06004KT 10SM CLR 13/04 A3018 RMK AO2 SLP222 T01330039
Loading
Personal Weather Stations






























Interactive Weather Map New forecast layout! Learn more

10-Day Weather Forecast

Advertisements
Track Severe Weather on mobile